createdAt,value
2017-08-20T00:00:07.053Z,11.6
2017-08-20T00:01:25.722Z,11.6
2017-08-20T00:02:44.374Z,11.6
2017-08-20T00:04:03.077Z,11.5
2017-08-20T00:05:21.734Z,11.5
2017-08-20T00:06:40.408Z,11.4
2017-08-20T00:07:59.148Z,11.4
2017-08-20T00:09:17.802Z,11.3
2017-08-20T00:10:36.468Z,11.3
2017-08-20T00:11:55.143Z,11.3
2017-08-20T00:13:13.798Z,11.3
2017-08-20T00:14:32.509Z,11.3
2017-08-20T00:15:51.167Z,11.2
2017-08-20T00:17:09.847Z,11.1
2017-08-20T00:18:28.503Z,11
2017-08-20T00:19:47.169Z,10.9
2017-08-20T00:21:05.826Z,10.9
2017-08-20T00:22:24.518Z,10.9
2017-08-20T00:23:43.240Z,10.8
2017-08-20T00:25:01.896Z,10.7
2017-08-20T00:26:20.555Z,10.7
2017-08-20T00:27:39.246Z,10.6
2017-08-20T00:28:57.908Z,10.6
2017-08-20T00:30:16.566Z,10.5
2017-08-20T00:31:35.220Z,10.4
2017-08-20T00:32:53.902Z,10.4
2017-08-20T00:34:12.567Z,10.4
2017-08-20T00:35:31.214Z,10.3
2017-08-20T00:36:49.869Z,10.3
2017-08-20T00:38:08.538Z,10.4
2017-08-20T00:39:27.209Z,10.5
2017-08-20T00:40:45.860Z,10.6
2017-08-20T00:42:04.516Z,10.7
2017-08-20T00:43:23.235Z,10.7
2017-08-20T00:44:41.918Z,10.8
2017-08-20T00:46:00.571Z,10.8
2017-08-20T00:47:19.260Z,10.8
2017-08-20T00:48:37.931Z,10.8
2017-08-20T00:49:56.590Z,10.8
2017-08-20T00:51:15.245Z,10.8
2017-08-20T00:52:33.971Z,10.8
2017-08-20T00:53:52.636Z,10.9
2017-08-20T00:55:11.321Z,10.9
2017-08-20T00:56:29.973Z,10.9
2017-08-20T00:57:48.623Z,10.9
2017-08-20T00:59:07.360Z,10.9
2017-08-20T01:00:26.037Z,11
2017-08-20T01:01:44.697Z,11
2017-08-20T01:03:03.405Z,11
2017-08-20T01:04:22.079Z,11
2017-08-20T01:05:40.758Z,11
2017-08-20T01:06:59.413Z,11
2017-08-20T01:08:18.123Z,10.9
2017-08-20T01:09:36.843Z,10.9
2017-08-20T01:10:55.519Z,10.9
2017-08-20T01:12:14.181Z,10.9
2017-08-20T01:13:32.891Z,10.8
2017-08-20T01:14:51.566Z,10.8
2017-08-20T01:16:10.273Z,10.7
2017-08-20T01:17:28.983Z,10.7
2017-08-20T01:18:47.644Z,10.7
2017-08-20T01:20:06.324Z,10.6
2017-08-20T01:21:24.989Z,10.6
2017-08-20T01:22:43.661Z,10.5
2017-08-20T01:24:02.343Z,10.5
2017-08-20T01:25:21.022Z,10.4
2017-08-20T01:26:39.745Z,10.3
2017-08-20T01:27:58.435Z,10.2
2017-08-20T01:29:17.146Z,10.1
2017-08-20T01:30:35.865Z,10
2017-08-20T01:31:54.529Z,9.9
2017-08-20T01:33:13.224Z,9.8
2017-08-20T01:34:31.862Z,9.8
2017-08-20T01:35:50.515Z,9.7
2017-08-20T01:37:09.156Z,9.6
2017-08-20T01:38:27.802Z,9.6
2017-08-20T01:39:46.440Z,9.5
2017-08-20T01:41:05.137Z,9.5
2017-08-20T01:42:23.810Z,9.5
2017-08-20T01:43:42.452Z,9.4
2017-08-20T01:45:01.089Z,9.4
2017-08-20T01:46:19.744Z,9.4
2017-08-20T01:47:38.394Z,9.4
2017-08-20T01:48:57.103Z,9.4
2017-08-20T01:50:15.747Z,9.3
2017-08-20T01:51:34.448Z,9.3
2017-08-20T01:52:53.095Z,9.3
2017-08-20T01:54:11.732Z,9.3
2017-08-20T01:55:30.373Z,9.3
2017-08-20T01:56:49.029Z,9.3
2017-08-20T01:58:07.709Z,9.3
2017-08-20T01:59:26.342Z,9.3
2017-08-20T02:00:44.981Z,9.3
2017-08-20T02:02:03.670Z,9.4
2017-08-20T02:03:22.318Z,9.4
2017-08-20T02:04:40.956Z,9.4
2017-08-20T02:05:59.591Z,9.5
2017-08-20T02:07:18.247Z,9.6
2017-08-20T02:08:36.944Z,9.7
2017-08-20T02:09:55.658Z,9.7
2017-08-20T02:11:14.348Z,9.8
2017-08-20T02:12:33.006Z,9.7
2017-08-20T02:13:51.650Z,9.6
2017-08-20T02:15:10.289Z,9.6
2017-08-20T02:16:28.971Z,9.5
2017-08-20T02:17:47.631Z,9.4
2017-08-20T02:19:06.265Z,9.3
2017-08-20T02:20:24.951Z,9.3
2017-08-20T02:21:43.660Z,9.2
2017-08-20T02:23:02.339Z,9.2
2017-08-20T02:24:21.037Z,9.2
2017-08-20T02:25:39.691Z,9.2
2017-08-20T02:26:58.378Z,9.1
2017-08-20T02:28:17.039Z,9.1
2017-08-20T02:29:35.685Z,9.1
2017-08-20T02:30:54.331Z,9.1
2017-08-20T02:32:12.989Z,9.1
2017-08-20T02:33:31.650Z,9
2017-08-20T02:34:50.296Z,9
2017-08-20T02:36:08.989Z,9.1
2017-08-20T02:37:27.628Z,9.1
2017-08-20T02:38:46.280Z,9.1
2017-08-20T02:40:04.928Z,9.1
2017-08-20T02:41:23.596Z,9.1
2017-08-20T02:42:42.241Z,9.1
2017-08-20T02:44:00.945Z,9.1
2017-08-20T02:45:19.644Z,9.1
2017-08-20T02:46:38.292Z,9
2017-08-20T02:47:56.933Z,9.1
2017-08-20T02:49:15.615Z,9.1
2017-08-20T02:50:34.253Z,9.1
2017-08-20T02:51:52.888Z,9.1
2017-08-20T02:53:11.573Z,9
2017-08-20T02:54:30.245Z,9
2017-08-20T02:55:48.893Z,9
2017-08-20T02:57:07.577Z,9
2017-08-20T02:58:26.265Z,8.9
2017-08-20T02:59:44.922Z,8.9
2017-08-20T03:01:03.574Z,8.9
2017-08-20T03:02:22.211Z,8.9
2017-08-20T03:03:40.856Z,8.9
2017-08-20T03:04:59.531Z,8.9
2017-08-20T03:06:18.180Z,8.9
2017-08-20T03:07:36.870Z,8.8
2017-08-20T03:08:55.549Z,8.8
2017-08-20T03:10:14.255Z,8.8
2017-08-20T03:11:32.889Z,8.8
2017-08-20T03:12:51.564Z,8.8
2017-08-20T03:14:10.203Z,8.8
2017-08-20T03:15:28.857Z,8.8
2017-08-20T03:16:47.557Z,8.8
2017-08-20T03:18:06.198Z,8.8
2017-08-20T03:19:24.857Z,8.8
2017-08-20T03:20:43.518Z,8.8
2017-08-20T03:22:02.171Z,8.8
2017-08-20T03:23:20.852Z,8.7
2017-08-20T03:24:39.543Z,8.7
2017-08-20T03:25:58.277Z,8.7
2017-08-20T03:27:16.914Z,8.7
2017-08-20T03:28:35.609Z,8.7
2017-08-20T03:29:54.253Z,8.6
2017-08-20T03:31:12.910Z,8.6
2017-08-20T03:32:31.616Z,8.6
2017-08-20T03:33:50.266Z,8.5
2017-08-20T03:35:08.960Z,8.5
2017-08-20T03:36:27.655Z,8.5
2017-08-20T03:37:46.306Z,8.5
2017-08-20T03:39:04.948Z,8.5
2017-08-20T03:40:23.588Z,8.5
2017-08-20T03:41:42.268Z,8.4
2017-08-20T03:43:00.907Z,8.3
2017-08-20T03:44:19.571Z,8.3
2017-08-20T03:45:38.239Z,8.3
2017-08-20T03:46:56.903Z,8.3
2017-08-20T03:48:15.570Z,8.3
2017-08-20T03:49:34.210Z,8.2
2017-08-20T03:50:52.847Z,8.2
2017-08-20T03:52:11.560Z,8.2
2017-08-20T03:53:30.207Z,8.2
2017-08-20T03:54:48.849Z,8.1
2017-08-20T03:56:07.515Z,8.1
2017-08-20T03:57:26.194Z,8.1
2017-08-20T03:58:44.827Z,8
2017-08-20T04:00:03.497Z,8
2017-08-20T04:01:22.160Z,8
2017-08-20T04:02:40.809Z,7.9
2017-08-20T04:03:59.494Z,7.9
2017-08-20T04:05:18.158Z,7.9
2017-08-20T04:06:36.795Z,7.9
2017-08-20T04:07:55.493Z,7.9
2017-08-20T04:09:14.127Z,7.9
2017-08-20T04:10:32.809Z,7.9
2017-08-20T04:11:51.513Z,7.8
2017-08-20T04:13:10.186Z,7.8
2017-08-20T04:14:28.823Z,7.8
2017-08-20T04:15:47.508Z,7.8
2017-08-20T04:17:06.148Z,7.8
2017-08-20T04:18:24.809Z,7.8
2017-08-20T04:19:43.475Z,7.8
2017-08-20T04:21:02.106Z,7.8
2017-08-20T04:22:20.796Z,7.8
2017-08-20T04:23:39.452Z,7.8
2017-08-20T04:24:58.116Z,7.8
2017-08-20T04:26:16.779Z,7.8
2017-08-20T04:27:35.473Z,7.8
2017-08-20T04:28:54.169Z,7.8
2017-08-20T04:30:12.832Z,7.8
2017-08-20T04:31:31.483Z,7.8
2017-08-20T04:32:50.125Z,7.8
2017-08-20T04:34:08.792Z,7.8
2017-08-20T04:35:27.443Z,7.8
2017-08-20T04:36:46.081Z,7.9
2017-08-20T04:38:04.728Z,7.9
2017-08-20T04:39:23.389Z,7.9
2017-08-20T04:40:42.063Z,7.9
2017-08-20T04:42:00.706Z,7.9
2017-08-20T04:43:19.351Z,7.9
2017-08-20T04:44:38.057Z,8
2017-08-20T04:45:56.707Z,8
2017-08-20T04:47:15.396Z,8.1
2017-08-20T04:48:34.042Z,8.1
2017-08-20T04:49:52.685Z,8.2
2017-08-20T04:51:11.362Z,8.2
2017-08-20T04:52:30.001Z,8.3
2017-08-20T04:53:48.681Z,8.3
2017-08-20T04:55:07.344Z,8.4
2017-08-20T04:56:25.999Z,8.5
2017-08-20T04:57:44.645Z,8.5
2017-08-20T04:59:03.285Z,8.6
2017-08-20T05:00:21.993Z,8.6
2017-08-20T05:01:40.633Z,8.6
2017-08-20T05:02:59.272Z,8.7
2017-08-20T05:04:17.942Z,8.7
2017-08-20T05:05:36.606Z,8.8
2017-08-20T05:06:55.255Z,8.8
2017-08-20T05:08:13.896Z,8.8
2017-08-20T05:09:32.539Z,8.9
2017-08-20T05:10:51.254Z,8.9
2017-08-20T05:12:09.890Z,9
2017-08-20T05:13:28.577Z,9
2017-08-20T05:14:47.219Z,9.1
2017-08-20T05:16:05.874Z,9.1
2017-08-20T05:17:24.505Z,9.2
2017-08-20T05:18:43.169Z,9.2
2017-08-20T05:20:01.811Z,9.3
2017-08-20T05:21:20.461Z,9.3
2017-08-20T05:22:39.164Z,9.3
2017-08-20T05:23:57.830Z,9.4
2017-08-20T05:25:16.472Z,9.4
2017-08-20T05:26:35.181Z,9.5
2017-08-20T05:27:53.831Z,9.5
2017-08-20T05:29:12.465Z,9.5
2017-08-20T05:30:31.179Z,9.6
2017-08-20T05:31:49.886Z,9.6
2017-08-20T05:33:08.588Z,9.7
2017-08-20T05:34:27.234Z,9.8
2017-08-20T05:35:45.874Z,9.8
2017-08-20T05:37:04.547Z,9.8
2017-08-20T05:38:23.193Z,9.9
2017-08-20T05:39:41.858Z,9.9
2017-08-20T05:41:00.489Z,9.9
2017-08-20T05:42:19.192Z,10
2017-08-20T05:43:37.878Z,10
2017-08-20T05:44:56.527Z,10.1
2017-08-20T05:46:15.212Z,10.3
2017-08-20T05:47:33.913Z,10.3
2017-08-20T05:48:52.630Z,10.4
2017-08-20T05:50:11.289Z,10.5
2017-08-20T05:51:29.948Z,10.6
2017-08-20T05:52:48.617Z,10.7
2017-08-20T05:54:07.292Z,10.9
2017-08-20T05:55:25.947Z,11
2017-08-20T05:56:44.605Z,11.2
2017-08-20T05:58:03.278Z,11.3
2017-08-20T05:59:21.961Z,11.3
2017-08-20T06:00:40.624Z,11.5
2017-08-20T06:01:59.278Z,11.6
2017-08-20T06:03:17.950Z,11.6
2017-08-20T06:04:36.604Z,11.6
2017-08-20T06:05:55.254Z,11.7
2017-08-20T06:07:13.917Z,11.7
2017-08-20T06:08:32.645Z,11.8
2017-08-20T06:09:51.316Z,11.8
2017-08-20T06:11:09.985Z,11.8
2017-08-20T06:12:28.655Z,11.9
2017-08-20T06:13:47.321Z,12
2017-08-20T06:15:06.054Z,12
2017-08-20T06:16:24.706Z,12
2017-08-20T06:17:43.354Z,12.1
2017-08-20T06:19:02.027Z,12.1
2017-08-20T06:20:20.731Z,12.2
2017-08-20T06:21:39.441Z,12.2
2017-08-20T06:22:58.096Z,12.3
2017-08-20T06:24:16.822Z,12.3
2017-08-20T06:25:35.487Z,12.3
2017-08-20T06:26:54.137Z,12.3
2017-08-20T06:28:12.843Z,12.4
2017-08-20T06:29:31.508Z,12.4
2017-08-20T06:30:50.170Z,12.5
2017-08-20T06:32:08.833Z,12.5
2017-08-20T06:33:27.526Z,12.5
2017-08-20T06:34:46.202Z,12.6
2017-08-20T06:36:04.863Z,12.6
2017-08-20T06:37:23.521Z,12.7
2017-08-20T06:38:42.179Z,12.7
2017-08-20T06:40:00.928Z,12.7
2017-08-20T06:41:19.609Z,12.8
2017-08-20T06:42:38.301Z,12.8
2017-08-20T06:43:56.984Z,12.9
2017-08-20T06:45:15.700Z,12.9
2017-08-20T06:46:34.350Z,13
2017-08-20T06:47:53.009Z,13.1
2017-08-20T06:49:11.705Z,13.2
2017-08-20T06:50:30.373Z,13.3
2017-08-20T06:51:49.036Z,13.3
2017-08-20T06:53:07.743Z,13.3
2017-08-20T06:54:26.401Z,13.4
2017-08-20T06:55:45.076Z,13.4
2017-08-20T06:57:03.767Z,13.5
2017-08-20T06:58:22.457Z,13.6
2017-08-20T06:59:41.106Z,13.6
2017-08-20T07:00:59.771Z,13.7
2017-08-20T07:02:18.461Z,13.8
2017-08-20T07:03:37.132Z,13.8
2017-08-20T07:04:55.814Z,13.9
2017-08-20T07:06:14.482Z,13.9
2017-08-20T07:07:33.132Z,14
2017-08-20T07:08:51.782Z,14.1
2017-08-20T07:10:10.456Z,14.1
2017-08-20T07:11:29.144Z,14.1
2017-08-20T07:12:47.842Z,14.1
2017-08-20T07:14:06.550Z,14.2
2017-08-20T07:15:25.231Z,14.3
2017-08-20T07:16:43.950Z,14.4
2017-08-20T07:18:02.603Z,14.5
2017-08-20T07:19:21.254Z,14.5
2017-08-20T07:20:39.961Z,14.6
2017-08-20T07:21:58.632Z,14.7
2017-08-20T07:23:17.314Z,14.7
2017-08-20T07:24:35.965Z,14.8
2017-08-20T07:25:54.668Z,14.9
2017-08-20T07:27:13.344Z,15.1
2017-08-20T07:28:32.006Z,15.3
2017-08-20T07:29:50.713Z,15.4
2017-08-20T07:31:09.370Z,15.7
2017-08-20T07:32:28.037Z,16
2017-08-20T07:33:46.689Z,16.2
2017-08-20T07:35:05.341Z,16.2
2017-08-20T07:36:23.998Z,16.2
2017-08-20T07:37:42.667Z,16.1
2017-08-20T07:39:01.328Z,16
2017-08-20T07:40:19.984Z,16
2017-08-20T07:41:38.686Z,16
2017-08-20T07:42:57.408Z,16
2017-08-20T07:44:16.123Z,16
2017-08-20T07:45:34.822Z,16.1
2017-08-20T07:46:53.481Z,16.3
2017-08-20T07:48:12.173Z,16.5
2017-08-20T07:49:30.877Z,16.9
2017-08-20T07:50:49.543Z,17.3
2017-08-20T07:52:08.247Z,17.7
2017-08-20T07:53:26.921Z,17.9
2017-08-20T07:54:45.659Z,18
2017-08-20T07:56:04.315Z,18
2017-08-20T07:57:23.007Z,18.1
2017-08-20T07:58:41.724Z,17.7
2017-08-20T08:00:00.445Z,17.3
2017-08-20T08:01:19.104Z,16.9
2017-08-20T08:02:37.763Z,16.6
2017-08-20T08:03:56.440Z,16.4
2017-08-20T08:05:15.149Z,16.1
2017-08-20T08:06:33.796Z,15.9
2017-08-20T08:07:52.446Z,15.8
2017-08-20T08:09:11.156Z,15.6
2017-08-20T08:10:29.805Z,15.5
2017-08-20T08:11:48.510Z,15.4
2017-08-20T08:13:07.200Z,15.4
2017-08-20T08:14:25.868Z,15.5
2017-08-20T08:15:44.580Z,15.6
2017-08-20T08:17:03.235Z,15.7
2017-08-20T08:18:21.940Z,15.8
2017-08-20T08:19:40.608Z,15.9
2017-08-20T08:20:59.262Z,15.9
2017-08-20T08:22:17.922Z,15.8
2017-08-20T08:23:36.573Z,15.6
2017-08-20T08:24:55.254Z,15.4
2017-08-20T08:26:13.961Z,15.2
2017-08-20T08:27:32.639Z,15
2017-08-20T08:28:51.290Z,14.8
2017-08-20T08:30:09.962Z,14.8
2017-08-20T08:31:28.628Z,14.9
2017-08-20T08:32:47.289Z,15.3
2017-08-20T08:34:05.950Z,15.8
2017-08-20T08:35:24.628Z,16.3
2017-08-20T08:36:43.336Z,16.6
2017-08-20T08:38:02.013Z,16.8
2017-08-20T08:39:20.671Z,17
2017-08-20T08:40:39.367Z,16.9
2017-08-20T08:41:58.024Z,17
2017-08-20T08:43:16.683Z,17.2
2017-08-20T08:44:35.401Z,17.4
2017-08-20T08:45:54.079Z,17.5
2017-08-20T08:47:12.782Z,17.7
2017-08-20T08:48:31.464Z,17.5
2017-08-20T08:49:50.126Z,17.3
2017-08-20T08:51:08.800Z,17.3
2017-08-20T08:52:27.497Z,17.3
2017-08-20T08:53:46.187Z,17.6
2017-08-20T08:55:04.885Z,18.3
2017-08-20T08:56:23.591Z,18.9
2017-08-20T08:57:42.288Z,19.5
2017-08-20T08:59:00.943Z,19.6
2017-08-20T09:00:19.622Z,19.5
2017-08-20T09:01:38.295Z,19.3
2017-08-20T09:02:57.008Z,19.1
2017-08-20T09:04:15.723Z,18.8
2017-08-20T09:05:34.402Z,18.5
2017-08-20T09:06:53.130Z,18.3
2017-08-20T09:08:11.815Z,18.3
2017-08-20T09:09:30.519Z,18.2
2017-08-20T09:10:49.214Z,18.1
2017-08-20T09:12:07.933Z,18
2017-08-20T09:13:26.592Z,18
2017-08-20T09:14:45.284Z,17.9
2017-08-20T09:16:03.936Z,17.9
2017-08-20T09:17:22.605Z,17.8
2017-08-20T09:18:41.302Z,17.8
2017-08-20T09:19:59.960Z,17.9
2017-08-20T09:21:18.658Z,17.8
2017-08-20T09:22:37.336Z,17.7
2017-08-20T09:23:55.993Z,17.6
2017-08-20T09:25:14.675Z,17.5
2017-08-20T09:26:33.332Z,17.6
2017-08-20T09:27:52.005Z,17.8
2017-08-20T09:29:10.668Z,17.9
2017-08-20T09:30:29.372Z,17.9
2017-08-20T09:31:48.026Z,17.9
2017-08-20T09:33:06.714Z,17.8
2017-08-20T09:34:25.397Z,17.8
2017-08-20T09:35:44.109Z,17.9
2017-08-20T09:37:02.795Z,18.1
2017-08-20T09:38:21.518Z,18.3
2017-08-20T09:39:40.203Z,18.5
2017-08-20T09:40:58.870Z,18.5
2017-08-20T09:42:17.535Z,18.7
2017-08-20T09:43:36.204Z,18.5
2017-08-20T09:44:54.862Z,18.5
2017-08-20T09:46:13.524Z,18.5
2017-08-20T09:47:32.178Z,18.4
2017-08-20T09:48:50.847Z,18.2
2017-08-20T09:50:09.532Z,17.8
2017-08-20T09:51:28.181Z,17.7
2017-08-20T09:52:46.861Z,17.5
2017-08-20T09:54:05.536Z,17.4
2017-08-20T09:55:24.198Z,17.4
2017-08-20T09:56:42.872Z,17.5
2017-08-20T09:58:01.544Z,17.7
2017-08-20T09:59:20.212Z,17.8
2017-08-20T10:00:38.866Z,18.1
2017-08-20T10:01:57.521Z,18.6
2017-08-20T10:03:16.213Z,19
2017-08-20T10:04:34.879Z,19.4
2017-08-20T10:05:53.545Z,19.4
2017-08-20T10:07:12.199Z,19.4
2017-08-20T10:08:30.852Z,19.3
2017-08-20T10:09:49.525Z,19.5
2017-08-20T10:11:08.178Z,19.7
2017-08-20T10:12:26.873Z,19.6
2017-08-20T10:13:45.535Z,19.3
2017-08-20T10:15:04.261Z,19
2017-08-20T10:16:22.957Z,19
2017-08-20T10:17:41.645Z,19
2017-08-20T10:19:00.311Z,19.1
2017-08-20T10:20:18.983Z,19.2
2017-08-20T10:21:37.700Z,19.3
2017-08-20T10:22:56.370Z,19.8
2017-08-20T10:24:15.044Z,20.1
2017-08-20T10:25:33.721Z,20.4
2017-08-20T10:26:52.433Z,20.4
2017-08-20T10:28:11.087Z,20.2
2017-08-20T10:29:29.761Z,20
2017-08-20T10:30:48.422Z,19.6
2017-08-20T10:32:07.104Z,19.1
2017-08-20T10:33:25.759Z,18.7
2017-08-20T10:34:44.449Z,18.6
2017-08-20T10:36:03.160Z,18.9
2017-08-20T10:37:21.852Z,19.2
2017-08-20T10:38:40.508Z,19.9
2017-08-20T10:39:59.176Z,20.3
2017-08-20T10:41:17.876Z,20.6
2017-08-20T10:42:36.559Z,21.1
2017-08-20T10:43:55.215Z,21.6
2017-08-20T10:45:13.911Z,21.5
2017-08-20T10:46:32.589Z,21.2
2017-08-20T10:47:51.247Z,21
2017-08-20T10:49:09.943Z,20.7
2017-08-20T10:50:28.643Z,20.6
2017-08-20T10:51:47.367Z,20.6
2017-08-20T10:53:06.043Z,20.3
2017-08-20T10:54:24.700Z,20
2017-08-20T10:55:43.365Z,19.5
2017-08-20T10:57:02.071Z,19.2
2017-08-20T10:58:20.726Z,19.4
2017-08-20T10:59:39.371Z,19.6
2017-08-20T11:00:58.074Z,20
2017-08-20T11:02:16.799Z,20.4
2017-08-20T11:03:35.480Z,20.8
2017-08-20T11:04:54.159Z,20.8
2017-08-20T11:06:12.812Z,20.8
2017-08-20T11:07:31.515Z,20.9
2017-08-20T11:08:50.230Z,20.8
2017-08-20T11:10:08.902Z,20.6
2017-08-20T11:11:27.579Z,20.6
2017-08-20T11:12:46.272Z,20.7
2017-08-20T11:14:04.940Z,20.7
2017-08-20T11:15:23.589Z,20.6
2017-08-20T11:16:42.248Z,20.8
2017-08-20T11:18:00.944Z,20.5
2017-08-20T11:19:19.603Z,20.3
2017-08-20T11:20:38.255Z,20.1
2017-08-20T11:21:56.939Z,20.1
2017-08-20T11:23:15.792Z,20.1
2017-08-20T11:24:34.478Z,19.5
2017-08-20T11:25:53.179Z,19.3
2017-08-20T11:27:11.859Z,19.6
2017-08-20T11:28:30.522Z,20
2017-08-20T11:29:49.180Z,20.2
2017-08-20T11:31:07.837Z,20.2
2017-08-20T11:32:26.497Z,20.3
2017-08-20T11:33:45.175Z,20.4
2017-08-20T11:35:03.826Z,20.4
2017-08-20T11:36:22.480Z,20.5
2017-08-20T11:37:41.148Z,20.8
2017-08-20T11:38:59.879Z,21.3
2017-08-20T11:40:18.594Z,21.7
2017-08-20T11:41:37.252Z,22.2
2017-08-20T11:42:55.934Z,22.3
2017-08-20T11:44:14.671Z,22.2
2017-08-20T11:45:33.378Z,22
2017-08-20T11:46:52.041Z,22.2
2017-08-20T11:48:10.707Z,22.9
2017-08-20T11:49:29.381Z,23.8
2017-08-20T11:50:48.088Z,24.3
2017-08-20T11:52:06.748Z,25.7
2017-08-20T11:53:25.409Z,29.8
2017-08-20T11:54:44.087Z,33.3
2017-08-20T11:56:02.770Z,34.6
2017-08-20T11:57:21.420Z,34.2
2017-08-20T11:58:40.076Z,31.2
2017-08-20T11:59:58.751Z,28.3
2017-08-20T12:01:17.412Z,31.1
2017-08-20T12:02:36.148Z,34.4
2017-08-20T12:03:54.799Z,34.7
2017-08-20T12:05:13.514Z,35
2017-08-20T12:06:32.216Z,35.3
2017-08-20T12:07:50.895Z,35.2
2017-08-20T12:09:09.635Z,35.2
2017-08-20T12:10:28.319Z,35.1
2017-08-20T12:11:46.995Z,34.4
2017-08-20T12:13:05.667Z,31.3
2017-08-20T12:14:24.324Z,28.5
2017-08-20T12:15:43.056Z,26
2017-08-20T12:17:01.721Z,24.2
2017-08-20T12:18:20.429Z,23
2017-08-20T12:19:39.085Z,22.2
2017-08-20T12:20:57.760Z,21.5
2017-08-20T12:22:16.421Z,21.1
2017-08-20T12:23:35.073Z,21.1
2017-08-20T12:24:53.741Z,21
2017-08-20T12:26:12.406Z,21.1
2017-08-20T12:27:31.129Z,21.1
2017-08-20T12:28:49.784Z,21.3
2017-08-20T12:30:08.434Z,21.5
2017-08-20T12:31:27.135Z,22
2017-08-20T12:32:45.781Z,22.6
2017-08-20T12:34:04.462Z,22.8
2017-08-20T12:35:23.132Z,22.8
2017-08-20T12:36:41.806Z,24
2017-08-20T12:38:00.451Z,24.8
2017-08-20T12:39:19.107Z,25.4
2017-08-20T12:40:37.755Z,27.4
2017-08-20T12:41:56.431Z,26.9
2017-08-20T12:43:15.147Z,25.3
2017-08-20T12:44:33.814Z,23.9
2017-08-20T12:45:52.522Z,23
2017-08-20T12:47:11.193Z,22.2
2017-08-20T12:48:29.856Z,21.8
2017-08-20T12:49:48.509Z,21.4
2017-08-20T12:51:07.162Z,21.3
2017-08-20T12:52:25.883Z,21.3
2017-08-20T12:53:44.554Z,21.3
2017-08-20T12:55:03.211Z,21.3
2017-08-20T12:56:21.918Z,21.6
2017-08-20T12:57:40.592Z,22.9
2017-08-20T12:58:59.266Z,29.9
2017-08-20T13:00:17.969Z,34.4
2017-08-20T13:01:36.668Z,34.7
2017-08-20T13:02:55.377Z,35
2017-08-20T13:04:14.029Z,35.3
2017-08-20T13:05:32.675Z,35.1
2017-08-20T13:06:51.393Z,35.3
2017-08-20T13:08:10.114Z,35.3
2017-08-20T13:09:28.773Z,34.7
2017-08-20T13:10:47.443Z,33.3
2017-08-20T13:12:06.150Z,30.7
2017-08-20T13:13:24.853Z,28.5
2017-08-20T13:14:43.512Z,26.7
2017-08-20T13:16:02.195Z,26.1
2017-08-20T13:17:20.887Z,25.7
2017-08-20T13:18:39.598Z,30.1
2017-08-20T13:19:58.294Z,29.1
2017-08-20T13:21:16.957Z,27.6
2017-08-20T13:22:35.624Z,30.1
2017-08-20T13:23:54.319Z,34.4
2017-08-20T13:25:12.984Z,34.9
2017-08-20T13:26:31.679Z,34.6
2017-08-20T13:27:50.332Z,34.9
2017-08-20T13:29:09.009Z,35.3
2017-08-20T13:30:27.723Z,35.2
2017-08-20T13:31:46.375Z,35.2
2017-08-20T13:33:05.071Z,34.8
2017-08-20T13:34:23.743Z,33.8
2017-08-20T13:35:42.450Z,31
2017-08-20T13:37:01.142Z,28.6
2017-08-20T13:38:19.798Z,26.8
2017-08-20T13:39:38.463Z,25.7
2017-08-20T13:40:57.148Z,25.3
2017-08-20T13:42:15.825Z,27.6
2017-08-20T13:43:34.538Z,34.3
2017-08-20T13:44:53.222Z,34.5
2017-08-20T13:46:11.950Z,34.6
2017-08-20T13:47:30.694Z,35
2017-08-20T13:48:49.363Z,35.4
2017-08-20T13:50:08.086Z,35.3
2017-08-20T13:51:26.738Z,35.5
2017-08-20T13:52:45.396Z,35.5
2017-08-20T13:54:04.133Z,35.3
2017-08-20T13:55:22.815Z,35.4
2017-08-20T13:56:41.519Z,35.4
2017-08-20T13:58:00.180Z,35
2017-08-20T13:59:18.838Z,34.5
2017-08-20T14:00:37.511Z,32.8
2017-08-20T14:01:56.205Z,29.8
2017-08-20T14:03:14.875Z,28
2017-08-20T14:04:33.569Z,26
2017-08-20T14:05:52.237Z,24.9
2017-08-20T14:07:10.894Z,24.5
2017-08-20T14:08:29.542Z,24.2
2017-08-20T14:09:48.199Z,23.5
2017-08-20T14:11:06.875Z,23
2017-08-20T14:12:25.553Z,22.4
2017-08-20T14:13:44.250Z,22.1
2017-08-20T14:15:02.960Z,21.9
2017-08-20T14:16:21.631Z,21.6
2017-08-20T14:17:40.303Z,21.4
2017-08-20T14:18:59.048Z,21.4
2017-08-20T14:20:17.750Z,21.4
2017-08-20T14:21:36.422Z,21.7
2017-08-20T14:22:55.124Z,23.3
2017-08-20T14:24:13.778Z,23.8
2017-08-20T14:25:32.473Z,25.8
2017-08-20T14:26:51.148Z,30.5
2017-08-20T14:28:09.843Z,34.3
2017-08-20T14:29:28.517Z,33.5
2017-08-20T14:30:47.172Z,34.5
2017-08-20T14:32:05.880Z,34.9
2017-08-20T14:33:24.550Z,35.1
2017-08-20T14:34:43.267Z,35.4
2017-08-20T14:36:01.930Z,35.4
2017-08-20T14:37:20.670Z,35.5
2017-08-20T14:38:39.326Z,35.5
2017-08-20T14:39:58.014Z,35.5
2017-08-20T14:41:16.668Z,35.4
2017-08-20T14:42:35.353Z,35.2
2017-08-20T14:43:54.023Z,34.8
2017-08-20T14:45:12.725Z,34.5
2017-08-20T14:46:31.397Z,32.2
2017-08-20T14:47:50.061Z,29.9
2017-08-20T14:49:08.745Z,28.5
2017-08-20T14:50:27.432Z,28.5
2017-08-20T14:51:46.090Z,32.4
2017-08-20T14:53:04.760Z,34.5
2017-08-20T14:54:23.414Z,34.6
2017-08-20T14:55:42.065Z,33.7
2017-08-20T14:57:00.721Z,31.9
2017-08-20T14:58:19.394Z,33.6
2017-08-20T14:59:38.045Z,34.4
2017-08-20T15:00:56.750Z,33.1
2017-08-20T15:02:15.447Z,30.5
2017-08-20T15:03:34.144Z,29.9
2017-08-20T15:04:52.822Z,32.1
2017-08-20T15:06:11.510Z,33.9
2017-08-20T15:07:30.203Z,34.3
2017-08-20T15:08:48.889Z,33.5
2017-08-20T15:10:07.543Z,31.8
2017-08-20T15:11:26.222Z,29.4
2017-08-20T15:12:44.871Z,26.7
2017-08-20T15:14:03.580Z,25.3
2017-08-20T15:15:22.236Z,24.6
2017-08-20T15:16:40.896Z,24.1
2017-08-20T15:17:59.577Z,23.7
2017-08-20T15:19:18.252Z,23.6
2017-08-20T15:20:36.937Z,23.7
2017-08-20T15:21:55.589Z,23.2
2017-08-20T15:23:14.243Z,23
2017-08-20T15:24:32.962Z,22.8
2017-08-20T15:25:51.626Z,22.7
2017-08-20T15:27:10.314Z,22.8
2017-08-20T15:28:28.977Z,23.1
2017-08-20T15:29:47.679Z,23.4
2017-08-20T15:31:06.385Z,23.1
2017-08-20T15:32:25.045Z,23.2
2017-08-20T15:33:43.730Z,22.8
2017-08-20T15:35:02.409Z,22.4
2017-08-20T15:36:21.076Z,21.9
2017-08-20T15:37:39.735Z,21.4
2017-08-20T15:38:58.399Z,21.2
2017-08-20T15:40:17.071Z,20.9
2017-08-20T15:41:35.730Z,20.8
2017-08-20T15:42:54.411Z,20.7
2017-08-20T15:44:13.095Z,20.8
2017-08-20T15:45:31.826Z,20.9
2017-08-20T15:46:50.487Z,21
2017-08-20T15:48:09.138Z,21
2017-08-20T15:49:27.856Z,21.1
2017-08-20T15:50:46.515Z,21
2017-08-20T15:52:05.268Z,21.2
2017-08-20T15:53:23.981Z,21.1
2017-08-20T15:54:42.654Z,20.9
2017-08-20T15:56:01.387Z,20.7
2017-08-20T15:57:20.060Z,20.5
2017-08-20T15:58:38.765Z,20.3
2017-08-20T15:59:57.412Z,20.4
2017-08-20T16:01:16.089Z,20.6
2017-08-20T16:02:34.740Z,20.7
2017-08-20T16:03:53.405Z,20.5
2017-08-20T16:05:12.115Z,20.3
2017-08-20T16:06:30.832Z,20.2
2017-08-20T16:07:49.501Z,20.3
2017-08-20T16:09:08.159Z,20.4
2017-08-20T16:10:26.815Z,20.4
2017-08-20T16:11:45.548Z,20.4
2017-08-20T16:13:04.251Z,20.4
2017-08-20T16:14:22.910Z,20.2
2017-08-20T16:15:41.565Z,19.8
2017-08-20T16:17:00.264Z,19.5
2017-08-20T16:18:18.917Z,19
2017-08-20T16:19:37.571Z,18.9
2017-08-20T16:20:56.247Z,18.7
2017-08-20T16:22:14.975Z,18.5
2017-08-20T16:23:33.669Z,18.4
2017-08-20T16:24:52.329Z,18.4
2017-08-20T16:26:10.992Z,18.4
2017-08-20T16:27:29.699Z,18.3
2017-08-20T16:28:48.408Z,18.3
2017-08-20T16:30:07.085Z,18.1
2017-08-20T16:31:25.729Z,18
2017-08-20T16:32:44.429Z,17.9
2017-08-20T16:34:03.091Z,17.8
2017-08-20T16:35:21.758Z,17.8
2017-08-20T16:36:40.465Z,17.7
2017-08-20T16:37:59.189Z,17.7
2017-08-20T16:39:17.853Z,17.6
2017-08-20T16:40:36.510Z,17.5
2017-08-20T16:41:55.197Z,17.5
2017-08-20T16:43:13.869Z,17.5
2017-08-20T16:44:32.518Z,17.5
2017-08-20T16:45:51.170Z,17.6
2017-08-20T16:47:09.891Z,17.5
2017-08-20T16:48:28.559Z,17.5
2017-08-20T16:49:47.214Z,17.4
2017-08-20T16:51:05.869Z,17.4
2017-08-20T16:52:24.525Z,17.3
2017-08-20T16:53:43.199Z,17.2
2017-08-20T16:55:01.870Z,17.1
2017-08-20T16:56:20.526Z,17.1
2017-08-20T16:57:39.201Z,17.1
2017-08-20T16:58:57.902Z,17.1
2017-08-20T17:00:16.560Z,17.1
2017-08-20T17:01:35.213Z,17
2017-08-20T17:02:53.873Z,17
2017-08-20T17:04:12.548Z,17
2017-08-20T17:05:31.207Z,17.1
2017-08-20T17:06:49.948Z,17.1
2017-08-20T17:08:08.607Z,17.1
2017-08-20T17:09:27.289Z,17.1
2017-08-20T17:10:45.988Z,17
2017-08-20T17:12:04.707Z,17.1
2017-08-20T17:13:23.372Z,17.1
2017-08-20T17:14:42.047Z,17
2017-08-20T17:16:00.739Z,16.9
2017-08-20T17:17:19.446Z,16.8
2017-08-20T17:18:38.120Z,16.8
2017-08-20T17:19:56.793Z,16.7
2017-08-20T17:21:15.452Z,16.7
2017-08-20T17:22:34.110Z,16.6
2017-08-20T17:23:52.792Z,16.5
2017-08-20T17:25:11.509Z,16.4
2017-08-20T17:26:30.178Z,16.3
2017-08-20T17:27:48.833Z,16.1
2017-08-20T17:29:07.488Z,16
2017-08-20T17:30:26.158Z,16
2017-08-20T17:31:44.842Z,15.8
2017-08-20T17:33:03.518Z,15.6
2017-08-20T17:34:22.197Z,15.6
2017-08-20T17:35:40.878Z,15.5
2017-08-20T17:36:59.532Z,15.4
2017-08-20T17:38:18.223Z,15.3
2017-08-20T17:39:36.934Z,15.3
2017-08-20T17:40:55.600Z,15.2
2017-08-20T17:42:14.296Z,15.1